Time;durP1;ratioP1;P1;durP2;ratioP2;P2;SDS_P1;SDS_P2;PMS_P1;PMS_P2;Temp;Humidity;BMP_temperature;BMP_pressure;BME280_temperature;BME280_humidity;BME280_pressure;Samples;Min_cycle;Max_cycle;Signal;HPM_P1;HPM_P2
2023/03/21 00:00:46;;;;;;;14.60;11.38;;;10.80;95.80;;;;;;5030174;28;20075;-64
2023/03/21 00:03:13;;;;;;;16.60;12.23;;;10.80;95.80;;;;;;5029169;28;20153;-67
2023/03/21 00:05:40;;;;;;;15.98;11.93;;;10.80;95.70;;;;;;5021913;28;20044;-65
2023/03/21 00:08:06;;;;;;;14.35;11.07;;;10.80;95.70;;;;;;5021839;28;20127;-65
2023/03/21 00:10:32;;;;;;;17.88;12.32;;;10.90;95.70;;;;;;5033985;28;20147;-64
2023/03/21 00:12:58;;;;;;;13.55;10.25;;;10.80;95.80;;;;;;5025943;28;20208;-65
2023/03/21 00:15:26;;;;;;;17.30;11.13;;;10.80;95.70;;;;;;5024362;28;20065;-64
2023/03/21 00:17:57;;;;;;;15.93;12.63;;;10.80;95.80;;;;;;5025821;28;20471;-65
2023/03/21 00:20:23;;;;;;;16.27;12.25;;;10.90;95.80;;;;;;5027168;28;20044;-64
2023/03/21 00:22:49;;;;;;;15.82;12.75;;;10.90;95.70;;;;;;5025468;28;20037;-65
2023/03/21 00:25:14;;;;;;;19.65;13.50;;;10.90;95.80;;;;;;5023542;28;20417;-65
2023/03/21 00:27:40;;;;;;;17.00;12.40;;;10.90;95.70;;;;;;5033936;28;20490;-65
2023/03/21 00:30:06;;;;;;;16.45;12.75;;;10.90;95.70;;;;;;5025790;28;20061;-65
2023/03/21 00:32:33;;;;;;;16.33;12.45;;;10.90;95.70;;;;;;5021465;28;20166;-65
2023/03/21 00:34:58;;;;;;;21.02;13.75;;;10.90;95.60;;;;;;5024764;28;20036;-65
2023/03/21 00:37:27;;;;;;;21.02;14.50;;;10.90;96.10;;;;;;5021550;28;20038;-65
2023/03/21 00:39:53;;;;;;;22.38;15.00;;;10.80;95.90;;;;;;5024468;28;20037;-65
2023/03/21 00:42:18;;;;;;;19.27;14.65;;;10.90;95.80;;;;;;5021844;28;20032;-64
2023/03/21 00:44:44;;;;;;;21.77;15.85;;;10.90;95.80;;;;;;5027054;28;20032;-65
2023/03/21 00:47:11;;;;;;;21.90;16.05;;;10.90;95.80;;;;;;5025047;28;20090;-65
2023/03/21 00:49:37;;;;;;;22.20;16.38;;;10.90;96.10;;;;;;5023683;28;20144;-65
2023/03/21 00:52:08;;;;;;;22.23;15.38;;;10.90;96.40;;;;;;5025533;28;20018;-65
2023/03/21 00:54:35;;;;;;;22.35;15.68;;;10.80;96.60;;;;;;5020114;28;20083;-65
2023/03/21 00:57:02;;;;;;;27.55;18.00;;;10.80;96.90;;;;;;5022291;28;20370;-65
2023/03/21 00:59:29;;;;;;;22.85;17.10;;;10.80;97.00;;;;;;5028699;28;20139;-65
2023/03/21 01:01:59;;;;;;;21.70;15.35;;;10.80;97.20;;;;;;5034320;28;20141;-65
2023/03/21 01:04:27;;;;;;;22.75;16.02;;;10.80;97.50;;;;;;5025439;28;20029;-65
2023/03/21 01:06:53;;;;;;;22.35;16.50;;;10.70;97.70;;;;;;5032050;28;20039;-64
2023/03/21 01:09:22;;;;;;;23.77;17.27;;;10.70;98.00;;;;;;5033820;28;20149;-65
2023/03/21 01:11:50;;;;;;;23.77;16.63;;;10.70;98.00;;;;;;5034732;28;20048;-64
2023/03/21 01:14:17;;;;;;;23.63;16.52;;;10.70;98.20;;;;;;5031778;28;20029;-65
2023/03/21 01:16:43;;;;;;;21.58;16.33;;;10.60;98.50;;;;;;5033617;28;20037;-65
2023/03/21 01:19:14;;;;;;;24.23;18.20;;;10.60;98.60;;;;;;5032913;28;20025;-65
2023/03/21 01:21:39;;;;;;;24.15;16.58;;;10.60;98.90;;;;;;5033753;28;20849;-65
2023/03/21 01:24:06;;;;;;;24.58;17.35;;;10.60;99.00;;;;;;5030911;28;20029;-64
2023/03/21 01:26:31;;;;;;;22.13;15.63;;;10.50;99.10;;;;;;5033892;28;20167;-64
2023/03/21 01:28:58;;;;;;;24.08;15.55;;;10.50;99.30;;;;;;5033425;28;20148;-65
2023/03/21 01:31:24;;;;;;;22.17;15.73;;;10.50;99.40;;;;;;5032080;28;20040;-64
2023/03/21 01:33:49;;;;;;;27.90;15.07;;;10.50;99.60;;;;;;5031327;28;20025;-65
2023/03/21 01:36:22;;;;;;;24.67;16.92;;;10.50;99.60;;;;;;5034378;28;20037;-64
2023/03/21 01:38:50;;;;;;;24.88;16.10;;;10.40;99.90;;;;;;5032354;28;20029;-65
2023/03/21 01:41:39;;;;;;;26.27;16.40;;;10.40;99.90;;;;;;5027083;28;20072;-65
2023/03/21 01:44:09;;;;;;;29.02;17.95;;;10.40;99.90;;;;;;5032796;28;20029;-65
2023/03/21 01:46:52;;;;;;;26.17;17.02;;;10.50;99.80;;;;;;5029619;28;20025;-65
2023/03/21 01:49:37;;;;;;;26.35;16.70;;;10.40;99.80;;;;;;5027326;28;20048;-64
2023/03/21 01:52:16;;;;;;;25.65;17.52;;;10.30;99.90;;;;;;5032056;28;20029;-64
2023/03/21 01:54:45;;;;;;;29.17;17.23;;;10.30;99.90;;;;;;5032072;28;20032;-65
2023/03/21 01:57:20;;;;;;;28.02;17.33;;;10.30;99.90;;;;;;5024453;28;20037;-64
2023/03/21 01:59:53;;;;;;;26.77;17.58;;;10.30;99.90;;;;;;5034921;28;20877;-64
2023/03/21 02:02:50;;;;;;;27.17;15.93;;;10.30;99.90;;;;;;5032408;28;20143;-65
2023/03/21 02:06:03;;;;;;;23.73;15.98;;;10.20;99.90;;;;;;5023322;28;20029;-65
2023/03/21 02:08:35;;;;;;;22.05;13.82;;;10.10;99.90;;;;;;5036882;28;20116;-65
2023/03/21 02:11:08;;;;;;;25.45;17.40;;;10.10;99.90;;;;;;5032400;28;20120;-65
2023/03/21 02:13:39;;;;;;;26.15;15.50;;;10.20;99.90;;;;;;5035501;28;20661;-65
2023/03/21 02:16:19;;;;;;;23.83;15.77;;;10.20;99.90;;;;;;5037009;28;20032;-65
2023/03/21 02:19:18;;;;;;;21.60;15.15;;;10.10;99.90;;;;;;5030579;28;20120;-65
2023/03/21 02:22:01;;;;;;;26.67;16.45;;;10.20;99.90;;;;;;5025469;28;20283;-65
2023/03/21 02:24:48;;;;;;;25.35;16.58;;;10.20;99.90;;;;;;5031285;28;20056;-65
2023/03/21 02:27:22;;;;;;;26.27;16.27;;;10.20;99.90;;;;;;5030954;28;20040;-64
2023/03/21 02:30:03;;;;;;;25.60;16.13;;;10.20;99.90;;;;;;5025153;28;20109;-65
2023/03/21 02:32:51;;;;;;;27.38;16.70;;;10.20;99.90;;;;;;5026458;28;20029;-65
2023/03/21 02:35:48;;;;;;;26.60;17.17;;;10.20;99.90;;;;;;5035636;28;20754;-65
2023/03/21 02:38:19;;;;;;;22.10;14.68;;;10.10;99.90;;;;;;5031467;28;20145;-64
2023/03/21 02:41:10;;;;;;;27.05;16.60;;;10.10;99.90;;;;;;5032472;28;20051;-64
2023/03/21 02:43:45;;;;;;;28.50;16.92;;;10.10;99.90;;;;;;5033543;28;20028;-64
2023/03/21 02:46:19;;;;;;;28.75;17.30;;;10.00;99.90;;;;;;5033614;28;20029;-64
2023/03/21 02:49:05;;;;;;;27.33;16.90;;;10.10;99.90;;;;;;5029364;28;20033;-65
2023/03/21 02:51:33;;;;;;;27.97;17.67;;;10.10;99.90;;;;;;5029436;28;20028;-65
2023/03/21 02:54:26;;;;;;;26.95;16.25;;;10.00;99.90;;;;;;5032053;28;20398;-65
2023/03/21 02:56:55;;;;;;;29.30;16.33;;;10.00;99.90;;;;;;5030061;28;20830;-64
2023/03/21 02:59:23;;;;;;;27.75;17.60;;;10.00;99.90;;;;;;5027978;28;20155;-65
2023/03/21 03:01:52;;;;;;;29.92;16.73;;;10.00;99.90;;;;;;5021755;28;20029;-64
2023/03/21 03:04:20;;;;;;;30.85;17.55;;;9.90;99.90;;;;;;5030384;28;20029;-64
2023/03/21 03:06:58;;;;;;;29.83;18.13;;;9.90;99.90;;;;;;5031922;28;20122;-64
2023/03/21 03:10:01;;;;;;;32.25;17.55;;;9.90;99.90;;;;;;5034698;28;20397;-64
2023/03/21 03:12:51;;;;;;;30.85;16.13;;;10.00;99.90;;;;;;5029737;28;20477;-64
2023/03/21 03:15:50;;;;;;;29.77;16.50;;;9.90;99.90;;;;;;5024030;28;20037;-64
2023/03/21 03:18:31;;;;;;;30.70;17.23;;;10.00;99.90;;;;;;5032714;28;20034;-64
2023/03/21 03:21:13;;;;;;;29.35;16.27;;;10.00;99.90;;;;;;5030718;28;20028;-64
2023/03/21 03:23:56;;;;;;;29.90;15.52;;;10.00;99.90;;;;;;5028710;28;20036;-64
2023/03/21 03:26:48;;;;;;;27.88;16.30;;;9.90;99.90;;;;;;5026801;28;20053;-64
2023/03/21 03:29:17;;;;;;;29.30;16.45;;;9.80;99.90;;;;;;5030072;28;20171;-64
2023/03/21 03:32:09;;;;;;;34.38;15.65;;;9.80;99.90;;;;;;5028666;28;20865;-64
2023/03/21 03:34:40;;;;;;;28.52;17.33;;;9.80;99.90;;;;;;5036452;28;20062;-64
2023/03/21 03:37:13;;;;;;;26.83;15.60;;;9.90;99.90;;;;;;5028909;28;20230;-64
2023/03/21 03:39:47;;;;;;;28.83;15.63;;;9.80;99.90;;;;;;5026751;28;20025;-64
2023/03/21 03:42:17;;;;;;;28.30;16.63;;;9.90;99.90;;;;;;5019818;28;20078;-64
2023/03/21 03:44:47;;;;;;;28.98;16.58;;;9.90;99.90;;;;;;5025994;28;20556;-64
2023/03/21 03:47:30;;;;;;;30.30;16.55;;;9.90;99.90;;;;;;5019329;28;20037;-64
2023/03/21 03:50:24;;;;;;;31.42;17.17;;;9.80;99.90;;;;;;5025274;28;20029;-64
2023/03/21 03:52:56;;;;;;;30.48;16.85;;;9.60;99.90;;;;;;5030211;28;20036;-64
2023/03/21 03:55:26;;;;;;;33.30;16.35;;;9.60;99.90;;;;;;5019285;28;20044;-64
2023/03/21 03:57:54;;;;;;;30.17;17.58;;;9.50;99.90;;;;;;5018387;28;20489;-64
2023/03/21 04:00:20;;;;;;;33.67;17.50;;;9.60;99.90;;;;;;5034202;28;20037;-64
2023/03/21 04:02:50;;;;;;;32.60;17.52;;;9.60;99.90;;;;;;5019877;28;20033;-64
2023/03/21 04:05:20;;;;;;;29.90;16.65;;;9.60;99.90;;;;;;5018495;28;20576;-64
2023/03/21 04:07:49;;;;;;;31.55;16.67;;;9.60;99.90;;;;;;5019465;28;20056;-64
2023/03/21 04:10:18;;;;;;;33.95;17.48;;;9.70;99.90;;;;;;5025025;28;20604;-64
2023/03/21 04:12:44;;;;;;;33.13;16.55;;;9.70;99.90;;;;;;5023137;28;20037;-64
2023/03/21 04:15:21;;;;;;;34.63;17.05;;;9.80;99.90;;;;;;5019004;28;20029;-64
2023/03/21 04:17:53;;;;;;;36.90;17.67;;;9.80;99.90;;;;;;5019013;28;20056;-64
2023/03/21 04:20:19;;;;;;;31.73;16.70;;;9.70;99.90;;;;;;5024206;28;20151;-64
2023/03/21 04:22:45;;;;;;;30.50;16.50;;;9.70;99.90;;;;;;5022789;28;20029;-64
2023/03/21 04:25:12;;;;;;;26.20;15.93;;;9.70;99.90;;;;;;5025418;28;20045;-64
2023/03/21 04:27:38;;;;;;;28.50;17.10;;;9.60;99.90;;;;;;5033869;28;20037;-64
2023/03/21 04:30:23;;;;;;;30.40;17.75;;;9.60;99.90;;;;;;5026103;28;20843;-64
2023/03/21 04:33:18;;;;;;;30.33;17.63;;;9.70;99.90;;;;;;5027574;28;20041;-63
2023/03/21 04:35:55;;;;;;;33.20;16.55;;;9.60;99.90;;;;;;5028363;28;20032;-64
2023/03/21 04:38:22;;;;;;;30.48;17.08;;;9.60;99.90;;;;;;5021847;28;20029;-64
2023/03/21 04:40:49;;;;;;;35.67;18.38;;;9.60;99.90;;;;;;5023790;28;20032;-64
2023/03/21 04:43:15;;;;;;;34.38;18.42;;;9.60;99.90;;;;;;5032315;28;20037;-64
2023/03/21 04:45:41;;;;;;;34.53;18.85;;;9.60;99.90;;;;;;5023845;28;20079;-64
2023/03/21 04:48:07;;;;;;;31.95;17.77;;;9.50;99.90;;;;;;5032991;28;20068;-64
2023/03/21 04:50:33;;;;;;;33.75;17.80;;;9.50;99.90;;;;;;5033354;28;20152;-64
2023/03/21 04:52:59;;;;;;;30.27;16.58;;;9.50;99.90;;;;;;5035533;28;20039;-65
2023/03/21 04:55:28;;;;;;;33.50;18.08;;;9.50;99.90;;;;;;5027255;28;20148;-64
2023/03/21 04:57:54;;;;;;;30.83;17.38;;;9.40;99.90;;;;;;5031644;28;20033;-64
2023/03/21 05:00:22;;;;;;;36.88;18.33;;;9.40;99.90;;;;;;5029424;28;20026;-64
2023/03/21 05:02:48;;;;;;;32.42;17.70;;;9.40;99.90;;;;;;5032162;28;20496;-64
2023/03/21 05:05:14;;;;;;;31.38;17.73;;;9.40;99.90;;;;;;5027703;28;20046;-64
2023/03/21 05:07:40;;;;;;;36.35;18.70;;;9.50;99.90;;;;;;5027325;28;20568;-64
2023/03/21 05:10:09;;;;;;;30.75;17.88;;;9.50;99.90;;;;;;5033330;28;20509;-64
2023/03/21 05:12:36;;;;;;;37.15;18.75;;;9.50;99.90;;;;;;5032109;28;20025;-64
2023/03/21 05:15:02;;;;;;;34.33;18.35;;;9.50;99.90;;;;;;5032673;28;20030;-64
2023/03/21 05:17:29;;;;;;;36.42;18.25;;;9.50;99.90;;;;;;5023814;28;20053;-64
2023/03/21 05:19:56;;;;;;;39.83;20.38;;;9.60;99.90;;;;;;5029855;28;20455;-64
2023/03/21 05:22:23;;;;;;;41.15;19.40;;;9.60;99.90;;;;;;5036949;28;20042;-64
2023/03/21 05:24:50;;;;;;;32.33;18.05;;;9.60;99.90;;;;;;5025112;28;20568;-64
2023/03/21 05:27:44;;;;;;;34.05;17.65;;;9.60;99.90;;;;;;5030070;28;20041;-64
2023/03/21 05:30:14;;;;;;;37.22;18.23;;;9.60;99.90;;;;;;5045349;28;20120;-64
2023/03/21 05:32:41;;;;;;;32.70;17.55;;;9.60;99.90;;;;;;5027764;28;20033;-64
2023/03/21 05:35:10;;;;;;;34.47;18.55;;;9.60;99.90;;;;;;5025133;28;20642;-64
2023/03/21 05:37:37;;;;;;;34.22;18.17;;;9.70;99.90;;;;;;5024738;28;20032;-64
2023/03/21 05:40:06;;;;;;;41.10;20.02;;;9.70;99.90;;;;;;5028498;28;20029;-64
2023/03/21 05:42:32;;;;;;;32.35;19.13;;;9.70;99.90;;;;;;5024212;28;20120;-64
2023/03/21 05:44:59;;;;;;;37.33;19.52;;;9.80;99.90;;;;;;5031661;28;20386;-64
2023/03/21 05:47:29;;;;;;;41.00;21.38;;;9.70;99.90;;;;;;5029892;28;20036;-64
2023/03/21 05:49:57;;;;;;;36.35;19.27;;;9.70;99.90;;;;;;5028563;28;20029;-64
2023/03/21 05:52:23;;;;;;;31.80;18.88;;;9.70;99.90;;;;;;5027834;28;20496;-64
2023/03/21 05:54:49;;;;;;;37.83;20.98;;;9.60;99.90;;;;;;5031677;28;20036;-64
2023/03/21 05:57:19;;;;;;;38.63;19.50;;;9.70;99.90;;;;;;5031381;28;20044;-64
2023/03/21 06:00:07;;;;;;;38.70;18.75;;;9.70;99.90;;;;;;5027825;28;20064;-64
2023/03/21 06:02:41;;;;;;;38.00;18.98;;;9.60;99.90;;;;;;5032747;28;20033;-64
2023/03/21 06:05:18;;;;;;;37.28;20.10;;;9.70;99.90;;;;;;5028368;28;20037;-64
2023/03/21 06:07:44;;;;;;;37.92;20.73;;;9.60;99.90;;;;;;5028508;28;20125;-64
2023/03/21 06:10:10;;;;;;;39.75;20.17;;;9.70;99.90;;;;;;5030084;28;20049;-64
2023/03/21 06:12:39;;;;;;;43.20;20.58;;;9.60;99.90;;;;;;5025660;28;20075;-64
2023/03/21 06:15:16;;;;;;;37.20;20.27;;;9.60;99.90;;;;;;5027507;28;20068;-64
2023/03/21 06:17:52;;;;;;;41.10;20.45;;;9.70;99.90;;;;;;5028531;28;20022;-64
2023/03/21 06:20:18;;;;;;;37.05;19.90;;;9.70;99.90;;;;;;5028003;28;20143;-64
2023/03/21 06:22:49;;;;;;;37.70;20.88;;;9.70;99.90;;;;;;5025942;28;20111;-64
2023/03/21 06:25:15;;;;;;;38.17;19.40;;;9.70;99.90;;;;;;5032361;28;20440;-63
2023/03/21 06:27:42;;;;;;;38.90;21.27;;;9.80;99.90;;;;;;5029768;28;20071;-64
2023/03/21 06:30:08;;;;;;;39.42;20.55;;;9.80;99.90;;;;;;5024912;28;20497;-64
2023/03/21 06:32:42;;;;;;;36.15;19.10;;;9.80;99.90;;;;;;5031333;28;20516;-64
2023/03/21 06:35:12;;;;;;;31.98;17.85;;;9.80;99.90;;;;;;5030303;28;20025;-64
2023/03/21 06:37:38;;;;;;;33.83;18.85;;;9.80;99.90;;;;;;5025781;28;20040;-64
2023/03/21 06:40:04;;;;;;;33.15;19.35;;;9.80;99.90;;;;;;5027771;28;20045;-63
2023/03/21 06:42:31;;;;;;;34.20;19.42;;;9.80;99.90;;;;;;5025784;28;20044;-65
2023/03/21 06:45:05;;;;;;;33.15;19.45;;;10.00;99.90;;;;;;5027429;28;20036;-64
2023/03/21 06:47:31;;;;;;;39.33;19.35;;;10.00;99.90;;;;;;5029891;28;20064;-64
2023/03/21 06:49:58;;;;;;;37.25;19.90;;;10.10;99.90;;;;;;5031736;28;20089;-64
2023/03/21 06:52:24;;;;;;;32.30;18.13;;;10.10;99.90;;;;;;5026620;28;20040;-64
2023/03/21 06:54:51;;;;;;;36.33;19.25;;;10.20;99.90;;;;;;5023035;28;20029;-64
2023/03/21 06:57:20;;;;;;;35.00;18.50;;;10.20;99.90;;;;;;5027758;28;20440;-64
2023/03/21 06:59:47;;;;;;;31.25;17.70;;;10.40;99.90;;;;;;5036574;28;20755;-64
2023/03/21 07:02:15;;;;;;;34.85;19.20;;;10.40;99.90;;;;;;5032657;28;20032;-64
2023/03/21 07:04:47;;;;;;;37.42;18.77;;;10.40;99.90;;;;;;5027756;28;20026;-63
2023/03/21 07:07:18;;;;;;;30.10;17.95;;;10.50;99.90;;;;;;5019513;28;20064;-64
2023/03/21 07:09:44;;;;;;;35.63;18.85;;;10.60;99.90;;;;;;5024178;28;20115;-64
2023/03/21 07:12:10;;;;;;;34.63;18.17;;;10.60;99.90;;;;;;5029935;28;20933;-64
2023/03/21 07:15:03;;;;;;;32.10;18.17;;;10.60;99.90;;;;;;5029234;28;20131;-64
2023/03/21 07:17:29;;;;;;;31.30;17.40;;;10.60;99.90;;;;;;5025780;28;20030;-64
2023/03/21 07:19:56;;;;;;;32.08;18.00;;;10.60;99.90;;;;;;5028567;28;20416;-64
2023/03/21 07:22:22;;;;;;;34.75;18.30;;;10.70;99.90;;;;;;5024179;28;20033;-65
2023/03/21 07:24:48;;;;;;;32.08;18.15;;;10.70;99.90;;;;;;5031560;28;20822;-64
2023/03/21 07:27:17;;;;;;;31.05;16.42;;;10.70;99.90;;;;;;5034173;28;20044;-64
2023/03/21 07:29:46;;;;;;;32.00;17.25;;;10.80;99.90;;;;;;5033846;28;20057;-65
2023/03/21 07:32:12;;;;;;;29.00;16.15;;;10.80;99.90;;;;;;5022941;28;20076;-64
2023/03/21 07:34:38;;;;;;;33.05;17.35;;;10.90;99.90;;;;;;5026248;28;20022;-65
2023/03/21 07:37:05;;;;;;;33.88;17.77;;;11.00;99.90;;;;;;5032133;28;20154;-65
2023/03/21 07:39:33;;;;;;;26.52;16.23;;;11.00;99.90;;;;;;5023983;28;20033;-65
2023/03/21 07:42:00;;;;;;;32.45;17.15;;;10.80;99.90;;;;;;5027339;28;20029;-64
2023/03/21 07:44:44;;;;;;;36.03;16.98;;;10.80;99.90;;;;;;5031253;28;20020;-64
2023/03/21 07:47:10;;;;;;;36.58;17.67;;;10.80;99.90;;;;;;5027397;28;20025;-65
2023/03/21 07:49:36;;;;;;;29.60;16.52;;;10.80;99.90;;;;;;5011777;28;20031;-64
2023/03/21 07:52:03;;;;;;;29.55;16.80;;;10.70;99.90;;;;;;5029228;28;20029;-63
2023/03/21 07:54:29;;;;;;;29.92;16.10;;;10.70;99.90;;;;;;5028908;28;20048;-64
2023/03/21 07:56:55;;;;;;;30.60;16.85;;;10.90;99.90;;;;;;5024471;28;20029;-64
2023/03/21 07:59:22;;;;;;;33.08;17.60;;;11.00;99.90;;;;;;5030404;28;20120;-64
2023/03/21 08:01:48;;;;;;;34.90;17.27;;;11.00;99.90;;;;;;5035652;28;20153;-62
2023/03/21 08:04:13;;;;;;;30.73;16.48;;;11.00;99.90;;;;;;5027735;28;20662;-65
2023/03/21 08:06:39;;;;;;;31.70;16.77;;;11.00;99.90;;;;;;5030835;28;20030;-64
2023/03/21 08:09:06;;;;;;;28.85;16.55;;;11.10;99.90;;;;;;5032859;28;20037;-64
2023/03/21 08:11:31;;;;;;;32.95;17.15;;;11.20;99.90;;;;;;5024900;28;20049;-64
2023/03/21 08:13:58;;;;;;;29.63;16.77;;;11.20;99.90;;;;;;5026387;28;20071;-63
2023/03/21 08:16:25;;;;;;;27.90;15.98;;;11.20;99.90;;;;;;5030205;28;20037;-64
2023/03/21 08:18:50;;;;;;;33.70;17.30;;;11.20;99.90;;;;;;5029580;28;20120;-63
2023/03/21 08:21:16;;;;;;;27.50;15.98;;;11.30;99.90;;;;;;5024963;28;20037;-64
2023/03/21 08:23:42;;;;;;;31.88;17.15;;;11.30;99.90;;;;;;5026764;28;20059;-64
2023/03/21 08:26:09;;;;;;;29.23;16.95;;;11.20;99.90;;;;;;5030094;28;20041;-64
2023/03/21 08:28:36;;;;;;;32.53;16.80;;;11.10;99.90;;;;;;5031046;28;20477;-65
2023/03/21 08:31:09;;;;;;;28.95;16.00;;;11.00;99.90;;;;;;5024180;28;20116;-62
2023/03/21 08:33:36;;;;;;;28.35;15.52;;;11.00;99.90;;;;;;5027807;28;20693;-66
2023/03/21 08:36:02;;;;;;;28.88;16.92;;;11.00;99.90;;;;;;5025560;28;20037;-64
2023/03/21 08:38:32;;;;;;;33.60;17.33;;;11.00;99.90;;;;;;5026607;28;20036;-66
2023/03/21 08:41:01;;;;;;;29.88;16.20;;;11.10;99.90;;;;;;5024196;28;20036;-65
2023/03/21 08:43:28;;;;;;;30.10;16.38;;;11.10;99.90;;;;;;5028177;28;20763;-65
2023/03/21 08:45:55;;;;;;;31.55;16.83;;;11.10;99.90;;;;;;5025541;28;20053;-64
2023/03/21 08:48:21;;;;;;;27.95;15.13;;;11.20;99.90;;;;;;5026422;28;20555;-66
2023/03/21 08:50:47;;;;;;;28.23;14.43;;;11.40;99.90;;;;;;5027466;28;20033;-66
2023/03/21 08:53:13;;;;;;;24.85;15.48;;;11.50;99.90;;;;;;5019377;28;20397;-66
2023/03/21 08:55:39;;;;;;;28.45;15.55;;;11.60;99.90;;;;;;5028275;28;20506;-64
2023/03/21 08:58:05;;;;;;;27.90;14.45;;;11.70;99.90;;;;;;5025890;28;20115;-64
2023/03/21 09:00:31;;;;;;;27.13;15.00;;;11.70;99.90;;;;;;5028678;28;20033;-66
2023/03/21 09:02:57;;;;;;;23.15;14.25;;;11.70;99.90;;;;;;5028176;28;20052;-66
2023/03/21 09:05:27;;;;;;;22.90;14.05;;;11.80;99.90;;;;;;5022274;28;20393;-67
2023/03/21 09:07:53;;;;;;;23.65;14.13;;;12.00;99.90;;;;;;5026226;28;20029;-66
2023/03/21 09:10:21;;;;;;;22.90;13.27;;;12.20;99.90;;;;;;5025205;28;20536;-63
2023/03/21 09:12:49;;;;;;;26.63;15.02;;;12.20;99.90;;;;;;5026518;28;20072;-66
2023/03/21 09:15:14;;;;;;;22.23;14.23;;;12.10;99.90;;;;;;5023510;28;20094;-66
2023/03/21 09:17:42;;;;;;;25.25;14.05;;;12.20;99.90;;;;;;5026387;28;20048;-67
2023/03/21 09:20:17;;;;;;;24.10;14.32;;;12.10;99.90;;;;;;5033295;28;20850;-67
2023/03/21 09:22:47;;;;;;;27.73;15.07;;;12.30;99.90;;;;;;5025587;28;20041;-67
2023/03/21 09:25:15;;;;;;;24.88;14.05;;;12.40;99.90;;;;;;5035731;28;20252;-66
2023/03/21 09:27:43;;;;;;;25.10;14.75;;;12.40;99.90;;;;;;5035249;28;20486;-66
2023/03/21 09:30:10;;;;;;;24.70;14.93;;;12.60;99.90;;;;;;5037741;28;20545;-66
2023/03/21 09:32:36;;;;;;;24.08;14.80;;;12.70;99.90;;;;;;5035972;28;20565;-66
2023/03/21 09:35:04;;;;;;;33.35;15.65;;;12.80;99.90;;;;;;5042771;28;20097;-66
2023/03/21 09:37:32;;;;;;;23.60;14.75;;;12.70;99.90;;;;;;5036171;28;20136;-67
2023/03/21 09:39:58;;;;;;;23.65;14.90;;;12.70;99.90;;;;;;5036472;28;20045;-68
2023/03/21 09:42:51;;;;;;;23.13;14.05;;;12.70;99.90;;;;;;5035366;28;20037;-67
2023/03/21 09:45:29;;;;;;;23.00;14.75;;;12.70;99.90;;;;;;5033491;28;20032;-67
2023/03/21 09:47:57;;;;;;;23.08;14.40;;;12.60;99.90;;;;;;5032875;28;20029;-67
2023/03/21 09:50:30;;;;;;;20.58;13.90;;;12.70;99.90;;;;;;5028636;28;20033;-67
2023/03/21 09:52:57;;;;;;;23.48;13.55;;;12.70;99.90;;;;;;5028397;28;20396;-67
2023/03/21 09:55:30;;;;;;;23.38;13.88;;;12.70;99.90;;;;;;5032534;28;20087;-69
2023/03/21 09:58:03;;;;;;;25.48;14.30;;;12.90;99.90;;;;;;5035579;28;20128;-67
2023/03/21 10:00:36;;;;;;;26.60;15.15;;;13.10;99.90;;;;;;5038211;28;20029;-67
2023/03/21 10:03:07;;;;;;;21.67;13.57;;;13.30;99.90;;;;;;5028657;28;20120;-67
2023/03/21 10:05:39;;;;;;;22.65;13.60;;;13.50;99.90;;;;;;5035279;28;20037;-68
2023/03/21 10:08:14;;;;;;;23.83;14.10;;;13.70;99.80;;;;;;5028859;28;20032;-68
2023/03/21 10:10:54;;;;;;;23.58;14.32;;;13.90;99.40;;;;;;5034256;28;20037;-68
2023/03/21 10:13:32;;;;;;;40.13;20.48;;;14.00;99.20;;;;;;5030046;28;20037;-68
2023/03/21 10:16:01;;;;;;;38.30;22.23;;;14.00;98.40;;;;;;5033205;28;20639;-68
2023/03/21 10:18:29;;;;;;;21.25;13.70;;;14.00;98.80;;;;;;5033199;28;20037;-67
2023/03/21 10:20:56;;;;;;;20.92;12.18;;;13.90;98.20;;;;;;5029833;28;20107;-67
2023/03/21 10:23:27;;;;;;;21.90;13.57;;;13.80;98.60;;;;;;5031577;28;20037;-67
2023/03/21 10:26:06;;;;;;;23.70;13.52;;;13.70;99.00;;;;;;5033153;28;20501;-67
2023/03/21 10:28:36;;;;;;;22.27;13.10;;;13.80;98.60;;;;;;5037874;28;20040;-68
2023/03/21 10:31:04;;;;;;;22.00;13.32;;;13.90;98.60;;;;;;5036704;28;20116;-67
2023/03/21 10:33:41;;;;;;;21.50;13.10;;;13.90;98.20;;;;;;5032964;28;20051;-67
2023/03/21 10:36:19;;;;;;;24.25;14.27;;;13.90;98.70;;;;;;5034880;28;20048;-69
2023/03/21 10:38:54;;;;;;;19.40;12.82;;;13.80;99.00;;;;;;5026221;28;20500;-68
2023/03/21 10:41:20;;;;;;;23.20;11.98;;;13.70;98.80;;;;;;5030142;28;20163;-68
2023/03/21 10:44:03;;;;;;;22.52;12.93;;;13.70;98.80;;;;;;5028863;28;20037;-68
2023/03/21 10:46:29;;;;;;;20.45;12.50;;;13.60;98.80;;;;;;5031900;28;20042;-68
2023/03/21 10:48:55;;;;;;;19.60;11.27;;;13.60;98.80;;;;;;5024566;28;20021;-68
2023/03/21 10:51:30;;;;;;;20.23;12.27;;;13.60;98.90;;;;;;5028401;28;20041;-68
2023/03/21 10:54:10;;;;;;;23.58;12.00;;;13.60;99.10;;;;;;5029176;28;20033;-68
2023/03/21 10:56:56;;;;;;;18.80;11.52;;;13.70;98.90;;;;;;5036834;28;20805;-70
2023/03/21 10:59:24;;;;;;;16.15;11.25;;;13.70;98.70;;;;;;5028447;28;20532;-69
2023/03/21 11:01:51;;;;;;;20.42;11.27;;;13.80;98.60;;;;;;5034526;28;20136;-69
2023/03/21 11:04:21;;;;;;;19.90;10.68;;;13.90;98.50;;;;;;5037344;28;20037;-68
2023/03/21 11:07:08;;;;;;;18.60;10.20;;;13.90;98.00;;;;;;5033356;28;20064;-68
2023/03/21 11:09:42;;;;;;;15.52;10.20;;;14.00;98.10;;;;;;5032778;28;20038;-68
2023/03/21 11:12:10;;;;;;;19.60;10.88;;;14.30;97.10;;;;;;5031287;28;20044;-68
2023/03/21 11:14:48;;;;;;;16.45;10.55;;;14.30;97.50;;;;;;5039463;28;20044;-67
2023/03/21 11:17:16;;;;;;;15.15;10.13;;;14.50;97.50;;;;;;5034235;28;20029;-66
2023/03/21 11:19:57;;;;;;;15.90;9.65;;;14.60;97.00;;;;;;5034256;28;20035;-67
2023/03/21 11:22:26;;;;;;;15.20;10.00;;;14.60;96.80;;;;;;5028128;28;20067;-66
2023/03/21 11:24:57;;;;;;;14.23;9.40;;;14.60;96.80;;;;;;5033685;28;20086;-66
2023/03/21 11:27:28;;;;;;;15.98;9.52;;;14.60;96.30;;;;;;5028814;28;20033;-67
2023/03/21 11:29:56;;;;;;;15.70;9.18;;;14.60;96.40;;;;;;5024426;28;20048;-68
2023/03/21 11:32:36;;;;;;;15.93;8.85;;;14.60;96.50;;;;;;5031727;28;20848;-68
2023/03/21 11:35:17;;;;;;;10.65;7.25;;;14.70;96.10;;;;;;5027612;28;20029;-67
2023/03/21 11:37:45;;;;;;;14.80;8.70;;;14.70;95.80;;;;;;5029034;28;20030;-68
2023/03/21 11:40:22;;;;;;;14.88;7.90;;;14.80;96.00;;;;;;5027679;28;20088;-67
2023/03/21 11:42:50;;;;;;;;;;;14.80;95.90;;;;;;5026287;28;20098;-67
2023/03/21 11:45:35;;;;;;;11.65;7.90;;;14.70;95.90;;;;;;5022072;28;19916;-67
2023/03/21 11:48:11;;;;;;;10.68;7.05;;;14.60;95.60;;;;;;5011698;28;20390;-69
2023/03/21 11:50:40;;;;;;;10.73;7.18;;;14.50;96.30;;;;;;5004684;28;20033;-68
2023/03/21 11:53:21;;;;;;;9.35;6.35;;;14.30;95.90;;;;;;5019450;28;20167;-70
2023/03/21 11:56:11;;;;;;;12.40;7.10;;;14.30;96.70;;;;;;5031971;28;20475;-69
2023/03/21 11:58:49;;;;;;;12.00;5.95;;;14.20;96.70;;;;;;5026709;28;20037;-69
2023/03/21 12:01:23;;;;;;;11.68;7.05;;;14.30;96.70;;;;;;5031021;28;20063;-68
2023/03/21 12:04:01;;;;;;;9.77;6.18;;;14.30;96.10;;;;;;5028243;28;20041;-68
2023/03/21 12:06:36;;;;;;;9.57;6.10;;;14.30;96.00;;;;;;5029023;28;20761;-69
2023/03/21 12:09:15;;;;;;;9.25;5.90;;;14.40;96.10;;;;;;5027320;28;20103;-69
2023/03/21 12:11:46;;;;;;;11.68;5.68;;;14.50;95.90;;;;;;5027763;28;20032;-69
2023/03/21 12:14:25;;;;;;;8.10;5.50;;;14.60;95.70;;;;;;5032336;28;20119;-67
2023/03/21 12:17:05;;;;;;;9.82;5.75;;;14.50;95.60;;;;;;5030676;28;20476;-69
2023/03/21 12:19:47;;;;;;;9.15;5.63;;;14.40;96.00;;;;;;5027266;28;20545;-68
2023/03/21 12:22:47;;;;;;;8.93;5.50;;;14.50;95.80;;;;;;5026252;28;20048;-68
2023/03/21 12:25:27;;;;;;;10.25;6.47;;;14.60;95.60;;;;;;5025725;28;20096;-68
2023/03/21 12:28:28;;;;;;;10.70;6.60;;;14.50;95.50;;;;;;5027143;28;20029;-68
2023/03/21 12:31:12;;;;;;;10.13;6.07;;;14.50;96.00;;;;;;5024977;28;20084;-68
2023/03/21 12:33:47;;;;;;;10.63;6.68;;;14.50;95.50;;;;;;5025783;28;20783;-68
2023/03/21 12:36:26;;;;;;;12.90;7.55;;;14.40;96.10;;;;;;5041303;28;20095;-64
2023/03/21 12:39:29;;;;;;;12.05;7.20;;;14.30;96.80;;;;;;5024180;28;20540;-68
2023/03/21 12:42:14;;;;;;;11.65;6.75;;;14.20;96.60;;;;;;5030662;28;20029;-68
2023/03/21 12:44:49;;;;;;;9.07;6.07;;;14.20;96.60;;;;;;5026866;28;20033;-68
2023/03/21 12:47:23;;;;;;;9.67;6.27;;;14.20;96.60;;;;;;5022272;28;20045;-67
2023/03/21 12:50:09;;;;;;;9.70;6.38;;;14.20;96.60;;;;;;5018374;28;20029;-67
2023/03/21 12:52:45;;;;;;;10.15;6.47;;;14.30;96.70;;;;;;5029534;28;20038;-68
2023/03/21 12:55:31;;;;;;;11.48;6.78;;;14.30;97.10;;;;;;5028183;28;20037;-68